Terminal Aerodrome Forecast
Issued by NWS

Home | Current Version | Previous Version | Text Only | Print | Product List | Glossary On
Versions: 1 2 3 4 5 6 7 8 9 10 11 12 13 14 15 16 17 18 19 20 21
000
FTUS43 KOAX 201720
TAFBFF
TAF
KBFF 201720Z 2018/2118 17006KT P6SM SCT025
     FM202000 14008KT P6SM SCT040 BKN100
     FM211100 12007KT P6SM SCT100=

USA.gov is the U.S. government's official web portal to all federal, state and local government web resources and services.